createdAt,value
2023-04-29T00:00:42.110Z,100233.53
2023-04-29T00:02:43.998Z,100232.28
2023-04-29T00:04:45.955Z,100236.41
2023-04-29T00:06:47.579Z,100229.22
2023-04-29T00:08:49.671Z,100233.38
2023-04-29T00:10:53.685Z,100222.34
2023-04-29T00:12:56.496Z,100228.59
2023-04-29T00:14:59.578Z,100232.28
2023-04-29T00:17:01.354Z,100234.50
2023-04-29T00:19:02.982Z,100233.38
2023-04-29T00:21:04.703Z,100228.25
2023-04-29T00:23:06.472Z,100229.38
2023-04-29T00:25:09.130Z,100231.78
2023-04-29T00:27:10.713Z,100230.66
2023-04-29T00:29:14.787Z,100235.00
2023-04-29T00:31:17.717Z,100238.16
2023-04-29T00:33:19.631Z,100233.06
2023-04-29T00:35:21.396Z,100230.34
2023-04-29T00:37:22.912Z,100228.13
2023-04-29T00:39:24.611Z,100235.00
2023-04-29T00:41:26.292Z,100231.44
2023-04-29T00:43:27.852Z,100239.13
2023-04-29T00:45:29.930Z,100237.69
2023-04-29T00:47:32.890Z,100245.53
2023-04-29T00:49:34.472Z,100237.38
2023-04-29T00:51:37.095Z,100240.09
2023-04-29T00:53:39.230Z,100241.53
2023-04-29T00:55:41.444Z,100245.66
2023-04-29T00:57:43.325Z,100245.66
2023-04-29T00:59:44.929Z,100247.94
2023-04-29T01:03:54.675Z,100241.53
2023-04-29T01:06:06.910Z,100235.44
2023-04-29T01:08:24.746Z,100239.59
2023-04-29T01:10:28.683Z,100240.09
2023-04-29T01:12:37.238Z,100244.25
2023-04-29T01:14:39.774Z,100245.19
2023-04-29T01:16:48.122Z,100240.22
2023-04-29T01:18:56.142Z,100238.47
2023-04-29T01:20:58.600Z,100238.47
2023-04-29T01:23:00.268Z,100242.63
2023-04-29T01:25:03.309Z,100244.34
2023-04-29T01:27:14.281Z,100238.94
2023-04-29T01:29:26.864Z,100240.69
2023-04-29T01:31:32.595Z,100249.94
2023-04-29T01:33:44.660Z,100250.44
2023-04-29T01:36:00.327Z,100252.97
2023-04-29T01:38:11.865Z,100252.97
2023-04-29T01:40:19.788Z,100255.50
2023-04-29T01:42:29.912Z,100247.84
2023-04-29T01:44:33.873Z,100252.50
2023-04-29T01:46:35.939Z,100249.78
2023-04-29T01:48:37.826Z,100255.50
2023-04-29T01:50:39.458Z,100250.41
2023-04-29T01:52:41.328Z,100249.13
2023-04-29T01:54:42.949Z,100255.53
2023-04-29T01:56:46.002Z,100247.25
2023-04-29T01:58:47.603Z,100247.44
2023-04-29T02:00:49.278Z,100254.28
2023-04-29T02:02:51.036Z,100258.91
2023-04-29T02:04:52.831Z,100250.16
2023-04-29T02:06:54.695Z,100256.19
2023-04-29T02:08:56.500Z,100256.06
2023-04-29T02:10:59.385Z,100262.63
2023-04-29T02:13:02.436Z,100264.72
2023-04-29T02:15:04.568Z,100264.56
2023-04-29T02:17:06.557Z,100261.56
2023-04-29T02:19:08.182Z,100268.31
2023-04-29T02:21:09.918Z,100266.22
2023-04-29T02:23:11.548Z,100270.84
2023-04-29T02:25:13.291Z,100264.13
2023-04-29T02:27:15.087Z,100280.91
2023-04-29T02:29:18.113Z,100268.28
2023-04-29T02:31:19.785Z,100275.16
2023-04-29T02:33:21.521Z,100279.81
2023-04-29T02:35:23.119Z,100275.66
2023-04-29T02:37:25.498Z,100276.44
2023-04-29T02:39:27.093Z,100276.28
2023-04-29T02:41:28.681Z,100276.44
2023-04-29T02:43:30.429Z,100283.94
2023-04-29T02:45:33.550Z,100283.31
2023-04-29T02:47:35.275Z,100275.00
2023-04-29T02:49:37.754Z,100274.03
2023-04-29T02:51:39.312Z,100274.34
2023-04-29T02:53:40.965Z,100280.44
2023-04-29T02:55:43.661Z,100279.00
2023-04-29T02:57:45.323Z,100279.63
2023-04-29T02:59:46.989Z,100284.91
2023-04-29T03:01:50.502Z,100285.41
2023-04-29T03:03:52.274Z,100293.22
2023-04-29T03:05:54.372Z,100289.38
2023-04-29T03:07:58.486Z,100283.78
2023-04-29T03:10:00.145Z,100280.75
2023-04-29T03:12:01.799Z,100282.03
2023-04-29T03:14:03.456Z,100282.03
2023-04-29T03:16:06.867Z,100283.81
2023-04-29T03:18:09.928Z,100286.19
2023-04-29T03:20:12.612Z,100291.59
2023-04-29T03:22:14.284Z,100285.25
2023-04-29T03:24:16.902Z,100282.53
2023-04-29T03:26:18.605Z,100285.25
2023-04-29T03:28:20.699Z,100286.34
2023-04-29T03:30:22.361Z,100288.44
2023-04-29T03:32:24.250Z,100290.19
2023-04-29T03:34:27.240Z,100292.25
2023-04-29T03:36:29.465Z,100290.19
2023-04-29T03:38:37.024Z,100291.63
2023-04-29T03:40:39.201Z,100296.75
2023-04-29T03:42:40.906Z,100293.53
2023-04-29T03:44:42.667Z,100290.03
2023-04-29T03:46:46.334Z,100295.47
2023-04-29T03:48:47.918Z,100297.69
2023-04-29T03:50:51.256Z,100299.13
2023-04-29T03:52:52.930Z,100305.84
2023-04-29T03:54:54.593Z,100310.81
2023-04-29T03:56:58.596Z,100304.59
2023-04-29T03:59:00.169Z,100312.03
2023-04-29T04:01:01.855Z,100320.31
2023-04-29T04:03:05.490Z,100317.41
2023-04-29T04:05:08.108Z,100323.66
2023-04-29T04:07:11.206Z,100322.56
2023-04-29T04:09:12.769Z,100319.34
2023-04-29T04:11:14.438Z,100326.84
2023-04-29T04:13:16.520Z,100329.09
2023-04-29T04:15:18.248Z,100327.97
2023-04-29T04:17:20.100Z,100333.25
2023-04-29T04:19:21.813Z,100336.09
2023-04-29T04:21:23.473Z,100345.81
2023-04-29T04:23:26.520Z,100338.44
2023-04-29T04:25:28.179Z,100345.31
2023-04-29T04:27:29.790Z,100344.19
2023-04-29T04:29:31.534Z,100347.56
2023-04-29T04:31:33.243Z,100340.72
2023-04-29T04:33:36.458Z,100348.19
2023-04-29T04:35:38.410Z,100352.38
2023-04-29T04:37:40.114Z,100357.06
2023-04-29T04:39:43.514Z,100366.38
2023-04-29T04:41:45.408Z,100359.63
2023-04-29T04:43:48.012Z,100356.47
2023-04-29T04:45:49.795Z,100366.66
2023-04-29T04:47:51.419Z,100364.09
2023-04-29T04:49:53.258Z,100361.03
2023-04-29T04:51:55.460Z,100371.28
2023-04-29T04:53:57.091Z,100363.75
2023-04-29T04:56:02.531Z,100376.22
2023-04-29T04:58:04.418Z,100371.13
2023-04-29T05:00:07.275Z,100379.25
2023-04-29T05:02:08.984Z,100380.69
2023-04-29T05:04:10.642Z,100381.94
2023-04-29T05:06:12.303Z,100384.97
2023-04-29T05:08:13.920Z,100382.31
2023-04-29T05:10:15.546Z,100390.25
2023-04-29T05:12:18.465Z,100390.44
2023-04-29T05:14:20.124Z,100393.50
2023-04-29T05:16:21.833Z,100397.94
2023-04-29T05:18:23.572Z,100399.44
2023-04-29T05:20:25.350Z,100406.28
2023-04-29T05:22:26.940Z,100409.47
2023-04-29T05:24:28.560Z,100405.97
2023-04-29T05:26:30.160Z,100405.53
2023-04-29T05:28:33.197Z,100412.41
2023-04-29T05:30:35.009Z,100414.06
2023-04-29T05:32:39.808Z,100420.47
2023-04-29T05:34:41.472Z,100424.47
2023-04-29T05:36:43.046Z,100425.16
2023-04-29T05:38:44.675Z,100425.34
2023-04-29T05:40:46.314Z,100426.63
2023-04-29T05:42:47.875Z,100434.00
2023-04-29T05:44:50.798Z,100431.41
2023-04-29T05:46:52.351Z,100438.59
2023-04-29T05:48:54.035Z,100440.19
2023-04-29T05:50:56.021Z,100443.69
2023-04-29T05:52:57.690Z,100440.00
2023-04-29T05:54:59.409Z,100442.84
2023-04-29T05:57:01.126Z,100443.78
2023-04-29T05:59:05.747Z,100452.53
2023-04-29T06:01:08.725Z,100454.00
2023-04-29T06:03:10.906Z,100454.34
2023-04-29T06:05:12.826Z,100456.03
2023-04-29T06:07:14.862Z,100452.53
2023-04-29T06:09:27.088Z,100461.69
2023-04-29T06:11:29.743Z,100457.56
2023-04-29T06:13:32.117Z,100466.03
2023-04-29T06:15:33.854Z,100470.03
2023-04-29T06:17:37.048Z,100467.44
2023-04-29T06:19:38.794Z,100474.59
2023-04-29T06:21:40.446Z,100472.25
2023-04-29T06:23:42.067Z,100479.91
2023-04-29T06:25:43.958Z,100479.38
2023-04-29T06:27:45.595Z,100477.00
2023-04-29T06:29:47.440Z,100484.22
2023-04-29T06:31:49.060Z,100487.06
2023-04-29T06:33:52.023Z,100488.88
2023-04-29T06:35:53.751Z,100493.50
2023-04-29T06:37:55.317Z,100502.94
2023-04-29T06:39:56.898Z,100504.75
2023-04-29T06:41:58.522Z,100507.63
2023-04-29T06:44:00.168Z,100507.16
2023-04-29T06:46:01.858Z,100503.19
2023-04-29T06:48:03.897Z,100511.78
2023-04-29T06:50:07.707Z,100505.19
2023-04-29T06:52:09.363Z,100507.91
2023-04-29T06:54:10.949Z,100508.41
2023-04-29T06:56:12.744Z,100509.41
2023-04-29T06:58:14.662Z,100517.41
2023-04-29T07:00:16.309Z,100514.72
2023-04-29T07:02:17.899Z,100518.63
2023-04-29T07:04:19.607Z,100528.53
2023-04-29T07:06:22.849Z,100525.03
2023-04-29T07:08:24.443Z,100527.44
2023-04-29T07:10:26.067Z,100529.75
2023-04-29T07:12:27.616Z,100532.22
2023-04-29T07:14:29.190Z,100534.94
2023-04-29T07:16:30.798Z,100529.88
2023-04-29T07:18:32.401Z,100544.44
2023-04-29T07:20:36.515Z,100542.41
2023-04-29T07:22:39.535Z,100545.63
2023-04-29T07:24:41.215Z,100548.81
2023-04-29T07:26:44.027Z,100554.75
2023-04-29T07:28:45.870Z,100555.88
2023-04-29T07:30:47.555Z,100561.41
2023-04-29T07:32:49.307Z,100560.09
2023-04-29T07:34:51.332Z,100572.72
2023-04-29T07:36:53.189Z,100566.44
2023-04-29T07:38:56.195Z,100564.19
2023-04-29T07:40:58.138Z,100564.34
2023-04-29T07:42:59.728Z,100563.69
2023-04-29T07:45:01.404Z,100565.31
2023-04-29T07:47:03.084Z,100568.81
2023-04-29T07:49:04.884Z,100574.25
2023-04-29T07:51:06.613Z,100573.47
2023-04-29T07:53:08.424Z,100583.69
2023-04-29T07:55:11.469Z,100576.13
2023-04-29T07:57:13.030Z,100581.41
2023-04-29T07:59:14.846Z,100583.13
2023-04-29T08:01:16.389Z,100590.84
2023-04-29T08:03:18.106Z,100593.72
2023-04-29T08:05:20.249Z,100597.22
2023-04-29T08:07:22.162Z,100596.66
2023-04-29T08:09:23.835Z,100599.59
2023-04-29T08:11:27.148Z,100594.94
2023-04-29T08:13:30.003Z,100602.31
2023-04-29T08:15:31.621Z,100608.22
2023-04-29T08:17:33.220Z,100600.94
2023-04-29T08:19:34.940Z,100606.53
2023-04-29T08:21:36.853Z,100602.25
2023-04-29T08:23:38.883Z,100614.41
2023-04-29T08:25:41.646Z,100613.97
2023-04-29T08:27:44.609Z,100614.25
2023-04-29T08:29:46.155Z,100618.91
2023-04-29T08:31:47.770Z,100614.25
2023-04-29T08:33:49.444Z,100622.91
2023-04-29T08:35:57.942Z,100627.50
2023-04-29T08:37:59.537Z,100628.34
2023-04-29T08:40:01.195Z,100626.56
2023-04-29T08:42:08.236Z,100625.34
2023-04-29T08:44:11.256Z,100624.84
2023-04-29T08:46:15.894Z,100626.13
2023-04-29T08:48:18.321Z,100626.56
2023-04-29T08:50:20.269Z,100625.63
2023-04-29T08:52:22.038Z,100627.06
2023-04-29T08:54:23.700Z,100633.78
2023-04-29T08:56:27.835Z,100625.13
2023-04-29T08:58:34.153Z,100636.69
2023-04-29T09:00:38.004Z,100630.31
2023-04-29T09:02:45.045Z,100637.19
2023-04-29T09:04:53.140Z,100642.13
2023-04-29T09:06:56.852Z,100636.22
2023-04-29T09:08:59.786Z,100638.66
2023-04-29T09:11:01.503Z,100642.00
2023-04-29T09:13:03.104Z,100637.38
2023-04-29T09:15:05.536Z,100639.97
2023-04-29T09:17:08.475Z,100647.53
2023-04-29T09:19:10.086Z,100645.59
2023-04-29T09:21:17.768Z,100654.09
2023-04-29T09:23:20.101Z,100653.97
2023-04-29T09:25:22.642Z,100650.56
2023-04-29T09:27:27.596Z,100656.97
2023-04-29T09:29:29.295Z,100654.47
2023-04-29T09:31:30.960Z,100659.16
2023-04-29T09:33:49.888Z,100655.63
2023-04-29T09:35:51.475Z,100660.47
2023-04-29T09:37:53.433Z,100653.06
2023-04-29T09:39:55.086Z,100666.19
2023-04-29T09:42:02.568Z,100661.59
2023-04-29T09:44:04.750Z,100662.84
2023-04-29T09:46:12.591Z,100662.69
2023-04-29T09:48:15.612Z,100663.38
2023-04-29T09:50:18.759Z,100652.81
2023-04-29T09:52:20.410Z,100657.41
2023-04-29T09:54:23.116Z,100659.81
2023-04-29T09:56:24.729Z,100664.81
2023-04-29T09:58:28.667Z,100661.16
2023-04-29T10:00:32.201Z,100668.06
2023-04-29T10:02:34.225Z,100672.53
2023-04-29T10:04:40.105Z,100667.47
2023-04-29T10:06:44.578Z,100673.22
2023-04-29T10:08:47.705Z,100666.69
2023-04-29T10:10:49.777Z,100669.09
2023-04-29T10:12:53.607Z,100667.97
2023-04-29T10:15:02.486Z,100664.50
2023-04-29T10:17:15.159Z,100661.47
2023-04-29T10:19:24.877Z,100666.59
2023-04-29T10:21:29.438Z,100658.44
2023-04-29T10:23:33.550Z,100666.25
2023-04-29T10:25:37.450Z,100667.38
2023-04-29T10:27:42.034Z,100673.94
2023-04-29T10:29:45.180Z,100677.28
2023-04-29T10:31:48.700Z,100668.63
2023-04-29T10:33:51.619Z,100670.06
2023-04-29T10:35:55.394Z,100664.00
2023-04-29T10:38:01.560Z,100665.94
2023-04-29T10:40:12.111Z,100663.22
2023-04-29T10:42:26.190Z,100659.69
2023-04-29T10:44:27.869Z,100671.56
2023-04-29T10:46:29.598Z,100673.63
2023-04-29T10:48:34.087Z,100676.34
2023-04-29T10:50:41.290Z,100668.66
2023-04-29T10:52:52.369Z,100680.81
2023-04-29T10:55:02.132Z,100672.19
2023-04-29T10:57:05.031Z,100667.56
2023-04-29T10:59:10.368Z,100658.91
2023-04-29T11:01:13.958Z,100676.53
2023-04-29T11:03:50.545Z,100664.97
2023-04-29T11:06:08.787Z,100665.78
2023-04-29T11:08:10.878Z,100671.25
2023-04-29T11:10:13.233Z,100667.34
2023-04-29T11:12:20.620Z,100659.25
2023-04-29T11:14:24.791Z,100668.88
2023-04-29T11:16:26.868Z,100664.09
2023-04-29T11:18:28.772Z,100660.06
2023-04-29T11:20:31.845Z,100660.88
2023-04-29T11:22:33.442Z,100660.06
2023-04-29T11:24:35.521Z,100658.16
2023-04-29T11:26:44.616Z,100658.69
2023-04-29T11:28:47.416Z,100660.97
2023-04-29T11:30:50.178Z,100659.38
2023-04-29T11:32:51.821Z,100667.69
2023-04-29T11:34:53.880Z,100664.34
2023-04-29T11:36:57.190Z,100658.53
2023-04-29T11:39:00.415Z,100666.84
2023-04-29T11:41:02.074Z,100662.53
2023-04-29T11:43:03.666Z,100668.38
2023-04-29T11:45:06.149Z,100661.91
2023-04-29T11:47:07.969Z,100672.16
2023-04-29T11:49:09.593Z,100665.31
2023-04-29T11:51:11.117Z,100665.31
2023-04-29T11:53:14.501Z,100671.00
2023-04-29T11:55:16.320Z,100670.09
2023-04-29T11:57:17.901Z,100671.66
2023-04-29T11:59:19.552Z,100677.00
2023-04-29T12:01:21.383Z,100675.44
2023-04-29T12:03:23.257Z,100681.59
2023-04-29T12:05:26.128Z,100677.41
2023-04-29T12:07:27.806Z,100676.31
2023-04-29T12:09:43.287Z,100684.19
2023-04-29T12:11:45.705Z,100690.63
2023-04-29T12:13:47.334Z,100683.75
2023-04-29T12:15:50.501Z,100690.16
2023-04-29T12:17:52.294Z,100687.75
2023-04-29T12:19:54.110Z,100690.16
2023-04-29T12:21:58.958Z,100689.03
2023-04-29T12:24:02.977Z,100698.34
2023-04-29T12:26:06.423Z,100693.53
2023-04-29T12:28:12.423Z,100689.03
2023-04-29T12:30:14.416Z,100693.38
2023-04-29T12:32:17.696Z,100694.66
2023-04-29T12:34:25.284Z,100698.47
2023-04-29T12:36:28.479Z,100688.53
2023-04-29T12:38:31.502Z,100688.06
2023-04-29T12:40:33.094Z,100693.50
2023-04-29T12:42:36.024Z,100698.19
2023-04-29T12:44:37.729Z,100699.16
2023-04-29T12:46:41.114Z,100700.56
2023-04-29T12:48:42.854Z,100699.94
2023-04-29T12:50:49.617Z,100706.03
2023-04-29T12:52:51.251Z,100705.88
2023-04-29T12:54:53.108Z,100706.66
2023-04-29T12:56:54.980Z,100699.78
2023-04-29T12:59:05.163Z,100709.38
2023-04-29T13:01:06.735Z,100701.69
2023-04-29T13:03:08.624Z,100706.03
2023-04-29T13:05:10.375Z,100701.69
2023-04-29T13:07:11.994Z,100701.53
2023-04-29T13:09:18.534Z,100706.84
2023-04-29T13:11:20.641Z,100698.31
2023-04-29T13:13:22.305Z,100704.75
2023-04-29T13:15:25.420Z,100699.44
2023-04-29T13:17:27.044Z,100699.59
2023-04-29T13:19:44.033Z,100701.19
2023-04-29T13:21:57.785Z,100705.50
2023-04-29T13:23:59.475Z,100705.38
2023-04-29T13:26:01.178Z,100704.53
2023-04-29T13:28:03.106Z,100709.94
2023-04-29T13:30:05.706Z,100705.06
2023-04-29T13:32:08.769Z,100705.19
2023-04-29T13:34:10.638Z,100707.28
2023-04-29T13:36:12.238Z,100704.69
2023-04-29T13:38:13.806Z,100708.41
2023-04-29T13:40:20.662Z,100707.56
2023-04-29T13:42:26.173Z,100705.31
2023-04-29T13:44:36.084Z,100708.38
2023-04-29T13:46:47.708Z,100708.91
2023-04-29T13:58:12.340Z,100719.81
2023-04-29T13:59:44.744Z,100715.63
2023-04-29T14:03:56.031Z,100716.28
2023-04-29T14:05:57.805Z,100713.41
2023-04-29T14:07:59.497Z,100722.25
2023-04-29T14:10:01.172Z,100713.63
2023-04-29T14:12:02.846Z,100722.91
2023-04-29T14:14:04.411Z,100719.00
2023-04-29T14:16:06.669Z,100717.75
2023-04-29T14:18:08.434Z,100723.56
2023-04-29T14:20:12.762Z,100722.13
2023-04-29T14:22:14.761Z,100719.78
2023-04-29T14:24:16.381Z,100719.41
2023-04-29T14:28:23.468Z,100726.31
2023-04-29T14:30:25.444Z,100719.72
2023-04-29T14:32:27.354Z,100724.03
2023-04-29T14:34:29.039Z,100721.28
2023-04-29T14:36:36.507Z,100719.81
2023-04-29T14:38:41.254Z,100729.69
2023-04-29T14:40:43.220Z,100721.94
2023-04-29T14:42:45.056Z,100727.53
2023-04-29T14:44:48.332Z,100731.41
2023-04-29T14:46:51.320Z,100735.06
2023-04-29T14:48:53.113Z,100734.25
2023-04-29T14:50:54.873Z,100731.09
2023-04-29T14:52:57.875Z,100733.00
2023-04-29T14:54:59.560Z,100738.16
2023-04-29T14:57:01.274Z,100735.81
2023-04-29T14:59:05.251Z,100735.69
2023-04-29T15:01:06.945Z,100735.69
2023-04-29T15:03:10.326Z,100738.16
2023-04-29T15:05:12.538Z,100738.00
2023-04-29T15:07:15.197Z,100739.97
2023-04-29T15:09:18.471Z,100746.13
2023-04-29T15:11:20.090Z,100744.06
2023-04-29T15:13:21.764Z,100743.41
2023-04-29T15:15:23.778Z,100740.06
2023-04-29T15:17:25.438Z,100737.28
2023-04-29T15:19:28.345Z,100735.69
2023-04-29T15:21:29.989Z,100738.41
2023-04-29T15:23:31.514Z,100739.88
2023-04-29T15:25:36.160Z,100742.47
2023-04-29T15:27:38.343Z,100737.94
2023-04-29T15:29:39.899Z,100737.00
2023-04-29T15:31:41.834Z,100738.66
2023-04-29T15:33:43.570Z,100739.31
2023-04-29T15:35:45.214Z,100743.34
2023-04-29T15:37:47.221Z,100745.28
2023-04-29T15:39:48.910Z,100748.63
2023-04-29T15:41:51.920Z,100747.31
2023-04-29T15:43:53.917Z,100749.78
2023-04-29T15:45:55.805Z,100752.88
2023-04-29T15:47:57.714Z,100754.00
2023-04-29T15:49:59.318Z,100749.84
2023-04-29T15:52:00.981Z,100752.28
2023-04-29T15:54:02.587Z,100755.31
2023-04-29T15:56:05.462Z,100755.81
2023-04-29T15:58:08.434Z,100760.81
2023-04-29T16:00:11.453Z,100765.31
2023-04-29T16:02:13.398Z,100761.75
2023-04-29T16:04:15.153Z,100770.75
2023-04-29T16:06:17.270Z,100770.63
2023-04-29T16:08:19.871Z,100767.72
2023-04-29T16:10:21.712Z,100767.91
2023-04-29T16:12:23.363Z,100764.06
2023-04-29T16:14:27.533Z,100769.38
2023-04-29T16:16:30.606Z,100770.94
2023-04-29T16:18:32.267Z,100765.13
2023-04-29T16:20:33.954Z,100769.19
2023-04-29T16:22:35.547Z,100779.31
2023-04-29T16:24:37.275Z,100773.03
2023-04-29T16:26:39.114Z,100781.72
2023-04-29T16:28:40.971Z,100778.16
2023-04-29T16:30:43.933Z,100772.53
2023-04-29T16:32:45.575Z,100778.34
2023-04-29T16:34:47.324Z,100780.72
2023-04-29T16:36:49.018Z,100776.72
2023-04-29T16:38:51.052Z,100774.16
2023-04-29T16:40:53.168Z,100773.72
2023-04-29T16:42:54.778Z,100771.13
2023-04-29T16:44:56.500Z,100774.50
2023-04-29T16:46:59.984Z,100773.38
2023-04-29T16:49:01.682Z,100770.00
2023-04-29T16:51:04.549Z,100778.84
2023-04-29T16:53:06.894Z,100777.75
2023-04-29T16:55:08.918Z,100773.56
2023-04-29T16:57:10.565Z,100779.66
2023-04-29T16:59:12.147Z,100774.34
2023-04-29T17:01:14.376Z,100779.31
2023-04-29T17:03:19.957Z,100776.44
2023-04-29T17:05:21.859Z,100780.59
2023-04-29T17:07:23.580Z,100787.19
2023-04-29T17:09:25.250Z,100783.50
2023-04-29T17:11:28.192Z,100792.97
2023-04-29T17:13:32.105Z,100788.47
2023-04-29T17:15:34.407Z,100791.69
2023-04-29T17:17:36.316Z,100786.88
2023-04-29T17:19:40.394Z,100794.91
2023-04-29T17:21:42.272Z,100796.66
2023-04-29T17:23:44.205Z,100788.81
2023-04-29T17:25:45.898Z,100792.47
2023-04-29T17:27:47.835Z,100791.38
2023-04-29T17:29:49.527Z,100795.69
2023-04-29T17:31:51.684Z,100799.56
2023-04-29T17:33:53.481Z,100799.22
2023-04-29T17:35:56.566Z,100797.94
2023-04-29T17:38:00.705Z,100799.41
2023-04-29T17:40:02.726Z,100801.00
2023-04-29T17:42:04.409Z,100800.69
2023-04-29T17:44:06.354Z,100803.72
2023-04-29T17:46:08.040Z,100804.66
2023-04-29T17:48:09.659Z,100801.78
2023-04-29T17:50:11.589Z,100805.31
2023-04-29T17:52:14.569Z,100807.88
2023-04-29T17:54:16.442Z,100806.13
2023-04-29T17:56:18.069Z,100802.44
2023-04-29T17:58:20.165Z,100813.84
2023-04-29T18:00:22.357Z,100814.78
2023-04-29T18:02:24.230Z,100809.81
2023-04-29T18:04:26.317Z,100813.59
2023-04-29T18:06:28.597Z,100817.00
2023-04-29T18:08:31.605Z,100822.09
2023-04-29T18:10:33.208Z,100822.75
2023-04-29T18:12:35.557Z,100820.56
2023-04-29T18:14:37.147Z,100822.09
2023-04-29T18:16:38.918Z,100818.25
2023-04-29T18:18:40.867Z,100822.91
2023-04-29T18:20:44.622Z,100825.78
2023-04-29T18:22:46.259Z,100833.44
2023-04-29T18:24:49.505Z,100821.09
2023-04-29T18:26:52.372Z,100826.56
2023-04-29T18:28:57.581Z,100828.63
2023-04-29T18:30:59.278Z,100826.22
2023-04-29T18:33:01.189Z,100833.41
2023-04-29T18:35:02.910Z,100830.66
2023-04-29T18:37:05.174Z,100824.59
2023-04-29T18:39:06.736Z,100833.00
2023-04-29T18:41:10.391Z,100834.41
2023-04-29T18:43:15.427Z,100829.44
2023-04-29T18:45:17.067Z,100839.06
2023-04-29T18:47:19.041Z,100839.06
2023-04-29T18:49:20.730Z,100839.19
2023-04-29T18:51:24.376Z,100840.63
2023-04-29T18:53:26.257Z,100847.34
2023-04-29T18:55:28.039Z,100847.22
2023-04-29T18:57:31.127Z,100852.84
2023-04-29T18:59:32.687Z,100853.06
2023-04-29T19:01:34.989Z,100856.56
2023-04-29T19:03:36.834Z,100859.91
2023-04-29T19:05:38.454Z,100860.28
2023-04-29T19:07:40.039Z,100866.34
2023-04-29T19:09:42.283Z,100862.38
2023-04-29T19:11:43.925Z,100864.44
2023-04-29T19:13:46.932Z,100872.78
2023-04-29T19:15:51.329Z,100873.41
2023-04-29T19:17:53.266Z,100878.00
2023-04-29T19:19:55.502Z,100880.72
2023-04-29T19:21:57.779Z,100875.72
2023-04-29T19:23:59.403Z,100873.75
2023-04-29T19:26:03.388Z,100882.25
2023-04-29T19:28:05.476Z,100885.25
2023-04-29T19:30:09.807Z,100888.28
2023-04-29T19:32:12.068Z,100886.47
2023-04-29T19:34:13.856Z,100895.59
2023-04-29T19:36:15.467Z,100894.34
2023-04-29T19:38:17.096Z,100888.72
2023-04-29T19:40:19.207Z,100890.78
2023-04-29T19:42:20.866Z,100893.84
2023-04-29T19:44:25.547Z,100894.63
2023-04-29T19:46:28.599Z,100900.28
2023-04-29T19:48:31.465Z,100900.13
2023-04-29T19:50:33.132Z,100900.78
2023-04-29T19:52:35.054Z,100899.06
2023-04-29T19:54:36.757Z,100899.56
2023-04-29T19:56:38.587Z,100902.06
2023-04-29T19:58:40.204Z,100904.28
2023-04-29T20:00:41.805Z,100897.50
2023-04-29T20:02:45.348Z,100905.69
2023-04-29T20:04:47.700Z,100901.94
2023-04-29T20:06:49.477Z,100908.75
2023-04-29T20:08:52.741Z,100907.66
2023-04-29T20:10:55.109Z,100912.50
2023-04-29T20:12:57.223Z,100904.34
2023-04-29T20:14:59.075Z,100905.41
2023-04-29T20:17:00.982Z,100907.25
2023-04-29T20:19:04.424Z,100918.38
2023-04-29T20:21:06.385Z,100917.25
2023-04-29T20:23:08.114Z,100919.28
2023-04-29T20:25:10.497Z,100913.91
2023-04-29T20:27:13.549Z,100915.84
2023-04-29T20:29:15.213Z,100918.44
2023-04-29T20:31:16.873Z,100925.47
2023-04-29T20:33:19.300Z,100917.34
2023-04-29T20:35:22.483Z,100921.50
2023-04-29T20:37:24.223Z,100921.31
2023-04-29T20:39:25.993Z,100919.59
2023-04-29T20:41:27.905Z,100925.28
2023-04-29T20:43:32.011Z,100919.00
2023-04-29T20:45:33.944Z,100923.34
2023-04-29T20:47:35.597Z,100927.56
2023-04-29T20:49:40.071Z,100928.25
2023-04-29T20:51:43.082Z,100928.41
2023-04-29T20:53:44.896Z,100927.44
2023-04-29T20:55:46.521Z,100928.13
2023-04-29T20:57:48.969Z,100923.50
2023-04-29T20:59:51.163Z,100924.31
2023-04-29T21:01:53.189Z,100920.78
2023-04-29T21:03:54.942Z,100922.91
2023-04-29T21:05:57.069Z,100927.72
2023-04-29T21:08:01.777Z,100929.22
2023-04-29T21:10:03.996Z,100939.38
2023-04-29T21:12:06.065Z,100941.97
2023-04-29T21:14:07.927Z,100929.09
2023-04-29T21:16:09.962Z,100932.94
2023-04-29T21:18:14.832Z,100929.91
2023-04-29T21:20:17.296Z,100935.97
2023-04-29T21:22:18.972Z,100935.41
2023-04-29T21:24:22.977Z,100935.78
2023-04-29T21:26:24.656Z,100936.34
2023-04-29T21:28:27.808Z,100931.34
2023-04-29T21:30:29.393Z,100925.31
2023-04-29T21:32:31.010Z,100924.75
2023-04-29T21:34:32.666Z,100935.03
2023-04-29T21:36:34.342Z,100934.03
2023-04-29T21:38:36.279Z,100932.94
2023-04-29T21:40:41.822Z,100936.97
2023-04-29T21:42:44.041Z,100936.97
2023-04-29T21:44:46.049Z,100935.34
2023-04-29T21:46:47.853Z,100929.41
2023-04-29T21:48:49.575Z,100934.84
2023-04-29T21:50:51.139Z,100924.88
2023-04-29T21:52:54.302Z,100921.25
2023-04-29T21:54:55.946Z,100932.19
2023-04-29T21:56:59.298Z,100939.47
2023-04-29T21:59:00.963Z,100938.34
2023-04-29T22:01:03.168Z,100940.56
2023-04-29T22:03:06.719Z,100941.69
2023-04-29T22:05:09.613Z,100938.06
2023-04-29T22:07:11.268Z,100942.66
2023-04-29T22:09:12.949Z,100938.47
2023-04-29T22:11:15.241Z,100945.81
2023-04-29T22:13:20.963Z,100948.16
2023-04-29T22:15:28.857Z,100942.28
2023-04-29T22:17:34.420Z,100945.50
2023-04-29T22:19:37.048Z,100950.63
2023-04-29T22:21:38.676Z,100947.84
2023-04-29T22:23:40.562Z,100946.63
2023-04-29T22:25:42.232Z,100954.91
2023-04-29T22:27:46.567Z,100951.44
2023-04-29T22:29:49.619Z,100950.44
2023-04-29T22:31:54.224Z,100948.94
2023-04-29T22:33:56.402Z,100950.47
2023-04-29T22:35:58.319Z,100954.47
2023-04-29T22:38:00.120Z,100952.22
2023-04-29T22:40:02.170Z,100947.00
2023-04-29T22:42:04.338Z,100959.69
2023-04-29T22:44:06.504Z,100956.59
2023-04-29T22:46:10.775Z,100960.94
2023-04-29T22:48:12.442Z,100960.50
2023-04-29T22:50:14.815Z,100962.13
2023-04-29T22:52:16.440Z,100962.66
2023-04-29T22:54:18.063Z,100959.22
2023-04-29T22:56:20.055Z,100957.97
2023-04-29T22:58:24.377Z,100953.66
2023-04-29T23:00:26.282Z,100954.50
2023-04-29T23:02:30.036Z,100955.25
2023-04-29T23:04:33.049Z,100951.13
2023-04-29T23:06:36.346Z,100951.94
2023-04-29T23:08:38.230Z,100956.66
2023-04-29T23:10:42.016Z,100957.59
2023-04-29T23:12:43.620Z,100954.34
2023-04-29T23:14:45.208Z,100950.34
2023-04-29T23:16:46.832Z,100951.13
2023-04-29T23:18:51.118Z,100957.66
2023-04-29T23:20:53.030Z,100957.88
2023-04-29T23:22:54.869Z,100956.78
2023-04-29T23:24:56.532Z,100965.03
2023-04-29T23:26:59.148Z,100969.38
2023-04-29T23:29:01.539Z,100971.19
2023-04-29T23:31:03.295Z,100970.78
2023-04-29T23:33:05.253Z,100973.97
2023-04-29T23:35:09.896Z,100967.63
2023-04-29T23:37:11.442Z,100969.09